sensor_id;sensor_type;location;lat;lon;timestamp;P1;durP1;ratioP1;P2;durP2;ratioP2
55527;SDS011;52818;43.308;21.916;2022-12-18T00:01:36;42.40;;;28.80;;
55527;SDS011;52818;43.308;21.916;2022-12-18T00:03:36;46.30;;;30.90;;
55527;SDS011;52818;43.308;21.916;2022-12-18T00:05:36;46.10;;;31.00;;
55527;SDS011;52818;43.308;21.916;2022-12-18T00:07:36;46.80;;;30.50;;
55527;SDS011;52818;43.308;21.916;2022-12-18T00:09:36;44.20;;;29.20;;
55527;SDS011;52818;43.308;21.916;2022-12-18T00:11:36;44.80;;;29.40;;
55527;SDS011;52818;43.308;21.916;2022-12-18T00:13:36;44.10;;;29.50;;
55527;SDS011;52818;43.308;21.916;2022-12-18T00:15:37;41.90;;;;;
55527;SDS011;52818;43.308;21.916;2022-12-18T00:17:37;41.30;;;28.20;;
55527;SDS011;52818;43.308;21.916;2022-12-18T00:19:37;38.80;;;26.90;;
55527;SDS011;52818;43.308;21.916;2022-12-18T00:21:37;41.20;;;28.00;;
55527;SDS011;52818;43.308;21.916;2022-12-18T00:23:37;41.30;;;28.60;;
55527;SDS011;52818;43.308;21.916;2022-12-18T00:25:37;40.70;;;28.00;;
55527;SDS011;52818;43.308;21.916;2022-12-18T00:27:37;43.50;;;29.00;;
55527;SDS011;52818;43.308;21.916;2022-12-18T00:29:40;39.60;;;27.50;;
55527;SDS011;52818;43.308;21.916;2022-12-18T00:31:37;37.70;;;27.60;;
55527;SDS011;52818;43.308;21.916;2022-12-18T00:33:38;42.70;;;27.90;;
55527;SDS011;52818;43.308;21.916;2022-12-18T00:35:37;41.20;;;28.10;;
55527;SDS011;52818;43.308;21.916;2022-12-18T00:37:38;41.40;;;27.60;;
55527;SDS011;52818;43.308;21.916;2022-12-18T00:39:38;38.70;;;;;
55527;SDS011;52818;43.308;21.916;2022-12-18T00:41:38;41.30;;;27.90;;
55527;SDS011;52818;43.308;21.916;2022-12-18T00:43:38;44.20;;;28.70;;
55527;SDS011;52818;43.308;21.916;2022-12-18T00:45:38;41.10;;;28.20;;
55527;SDS011;52818;43.308;21.916;2022-12-18T00:47:38;43.70;;;27.70;;
55527;SDS011;52818;43.308;21.916;2022-12-18T00:49:38;39.90;;;27.10;;
55527;SDS011;52818;43.308;21.916;2022-12-18T00:51:38;44.20;;;29.50;;
55527;SDS011;52818;43.308;21.916;2022-12-18T00:53:39;42.20;;;28.20;;
55527;SDS011;52818;43.308;21.916;2022-12-18T00:55:39;46.50;;;30.70;;
55527;SDS011;52818;43.308;21.916;2022-12-18T00:57:39;47.70;;;30.00;;
55527;SDS011;52818;43.308;21.916;2022-12-18T00:59:39;40.20;;;27.00;;
55527;SDS011;52818;43.308;21.916;2022-12-18T01:01:39;43.10;;;27.90;;
55527;SDS011;52818;43.308;21.916;2022-12-18T01:03:39;42.40;;;27.60;;
55527;SDS011;52818;43.308;21.916;2022-12-18T01:05:39;41.80;;;28.10;;
55527;SDS011;52818;43.308;21.916;2022-12-18T01:07:39;44.90;;;27.90;;
55527;SDS011;52818;43.308;21.916;2022-12-18T01:09:40;41.80;;;28.00;;
55527;SDS011;52818;43.308;21.916;2022-12-18T01:11:40;41.20;;;26.90;;
55527;SDS011;52818;43.308;21.916;2022-12-18T01:13:40;38.60;;;26.70;;
55527;SDS011;52818;43.308;21.916;2022-12-18T01:15:47;39.30;;;26.60;;
55527;SDS011;52818;43.308;21.916;2022-12-18T01:17:40;40.60;;;27.60;;
55527;SDS011;52818;43.308;21.916;2022-12-18T01:19:40;38.80;;;25.90;;
55527;SDS011;52818;43.308;21.916;2022-12-18T01:21:40;41.40;;;27.20;;
55527;SDS011;52818;43.308;21.916;2022-12-18T01:23:40;39.50;;;26.60;;
55527;SDS011;52818;43.308;21.916;2022-12-18T01:25:40;40.60;;;;;
55527;SDS011;52818;43.308;21.916;2022-12-18T01:27:40;36.10;;;25.00;;
55527;SDS011;52818;43.308;21.916;2022-12-18T01:29:40;37.90;;;25.60;;
55527;SDS011;52818;43.308;21.916;2022-12-18T01:31:41;37.50;;;25.80;;
55527;SDS011;52818;43.308;21.916;2022-12-18T01:33:41;38.20;;;25.30;;
55527;SDS011;52818;43.308;21.916;2022-12-18T01:35:41;40.30;;;26.70;;
55527;SDS011;52818;43.308;21.916;2022-12-18T01:37:41;38.20;;;25.90;;
55527;SDS011;52818;43.308;21.916;2022-12-18T01:39:41;41.80;;;27.50;;
55527;SDS011;52818;43.308;21.916;2022-12-18T01:41:41;42.90;;;;;
55527;SDS011;52818;43.308;21.916;2022-12-18T01:43:42;44.60;;;29.20;;
55527;SDS011;52818;43.308;21.916;2022-12-18T01:45:41;39.50;;;27.00;;
55527;SDS011;52818;43.308;21.916;2022-12-18T01:47:42;40.00;;;26.30;;
55527;SDS011;52818;43.308;21.916;2022-12-18T01:49:42;41.90;;;27.70;;
55527;SDS011;52818;43.308;21.916;2022-12-18T01:51:42;40.10;;;26.10;;
55527;SDS011;52818;43.308;21.916;2022-12-18T01:53:42;38.20;;;26.30;;
55527;SDS011;52818;43.308;21.916;2022-12-18T01:55:42;38.80;;;25.00;;
55527;SDS011;52818;43.308;21.916;2022-12-18T01:57:42;37.50;;;25.50;;
55527;SDS011;52818;43.308;21.916;2022-12-18T01:59:42;39.40;;;27.20;;
55527;SDS011;52818;43.308;21.916;2022-12-18T02:01:42;36.70;;;25.00;;
55527;SDS011;52818;43.308;21.916;2022-12-18T02:03:43;40.40;;;26.60;;
55527;SDS011;52818;43.308;21.916;2022-12-18T02:05:44;41.40;;;26.70;;
55527;SDS011;52818;43.308;21.916;2022-12-18T02:07:45;42.10;;;26.60;;
55527;SDS011;52818;43.308;21.916;2022-12-18T02:09:44;38.20;;;26.10;;
55527;SDS011;52818;43.308;21.916;2022-12-18T02:11:44;41.40;;;25.50;;
55527;SDS011;52818;43.308;21.916;2022-12-18T02:13:45;43.60;;;26.30;;
55527;SDS011;52818;43.308;21.916;2022-12-18T02:15:44;39.30;;;25.50;;
55527;SDS011;52818;43.308;21.916;2022-12-18T02:17:43;39.00;;;26.10;;
55527;SDS011;52818;43.308;21.916;2022-12-18T02:19:45;38.10;;;25.70;;
55527;SDS011;52818;43.308;21.916;2022-12-18T02:21:45;43.00;;;26.80;;
55527;SDS011;52818;43.308;21.916;2022-12-18T02:23:47;40.40;;;25.50;;
55527;SDS011;52818;43.308;21.916;2022-12-18T02:25:52;40.10;;;25.60;;
55527;SDS011;52818;43.308;21.916;2022-12-18T02:27:44;35.00;;;25.00;;
55527;SDS011;52818;43.308;21.916;2022-12-18T02:29:44;38.30;;;25.10;;
55527;SDS011;52818;43.308;21.916;2022-12-18T02:31:45;37.10;;;24.80;;
55527;SDS011;52818;43.308;21.916;2022-12-18T02:33:44;39.00;;;25.50;;
55527;SDS011;52818;43.308;21.916;2022-12-18T02:35:44;38.90;;;26.10;;
55527;SDS011;52818;43.308;21.916;2022-12-18T02:37:44;36.20;;;25.40;;
55527;SDS011;52818;43.308;21.916;2022-12-18T02:39:44;39.10;;;26.50;;
55527;SDS011;52818;43.308;21.916;2022-12-18T02:41:44;38.30;;;25.50;;
55527;SDS011;52818;43.308;21.916;2022-12-18T02:43:46;38.70;;;26.00;;
55527;SDS011;52818;43.308;21.916;2022-12-18T02:45:46;37.80;;;24.70;;
55527;SDS011;52818;43.308;21.916;2022-12-18T02:47:45;39.60;;;25.30;;
55527;SDS011;52818;43.308;21.916;2022-12-18T02:49:48;37.60;;;25.40;;
55527;SDS011;52818;43.308;21.916;2022-12-18T02:51:47;40.50;;;27.20;;
55527;SDS011;52818;43.308;21.916;2022-12-18T02:53:46;40.00;;;26.00;;
55527;SDS011;52818;43.308;21.916;2022-12-18T02:55:49;41.40;;;27.10;;
55527;SDS011;52818;43.308;21.916;2022-12-18T02:57:46;42.20;;;27.50;;
55527;SDS011;52818;43.308;21.916;2022-12-18T02:59:47;42.10;;;27.80;;
55527;SDS011;52818;43.308;21.916;2022-12-18T03:01:47;41.80;;;27.90;;
55527;SDS011;52818;43.308;21.916;2022-12-18T03:03:46;;;;26.50;;
55527;SDS011;52818;43.308;21.916;2022-12-18T03:05:47;40.20;;;26.60;;
55527;SDS011;52818;43.308;21.916;2022-12-18T03:07:57;37.90;;;25.50;;
55527;SDS011;52818;43.308;21.916;2022-12-18T03:09:46;40.40;;;26.00;;
55527;SDS011;52818;43.308;21.916;2022-12-18T03:11:47;40.50;;;25.70;;
55527;SDS011;52818;43.308;21.916;2022-12-18T03:13:48;37.90;;;25.00;;
55527;SDS011;52818;43.308;21.916;2022-12-18T03:15:47;40.40;;;26.20;;
55527;SDS011;52818;43.308;21.916;2022-12-18T03:17:48;39.90;;;25.50;;
55527;SDS011;52818;43.308;21.916;2022-12-18T03:19:46;39.30;;;26.10;;
55527;SDS011;52818;43.308;21.916;2022-12-18T03:21:47;37.50;;;25.60;;
55527;SDS011;52818;43.308;21.916;2022-12-18T03:23:47;37.30;;;26.10;;
55527;SDS011;52818;43.308;21.916;2022-12-18T03:25:46;;;;25.20;;
55527;SDS011;52818;43.308;21.916;2022-12-18T03:27:47;35.50;;;24.90;;
55527;SDS011;52818;43.308;21.916;2022-12-18T03:29:47;38.10;;;25.50;;
55527;SDS011;52818;43.308;21.916;2022-12-18T03:31:47;37.70;;;24.40;;
55527;SDS011;52818;43.308;21.916;2022-12-18T03:33:48;38.50;;;25.50;;
55527;SDS011;52818;43.308;21.916;2022-12-18T03:35:47;38.30;;;25.30;;
55527;SDS011;52818;43.308;21.916;2022-12-18T03:37:47;38.40;;;;;
55527;SDS011;52818;43.308;21.916;2022-12-18T03:39:47;39.30;;;25.40;;
55527;SDS011;52818;43.308;21.916;2022-12-18T03:41:49;39.20;;;26.00;;
55527;SDS011;52818;43.308;21.916;2022-12-18T03:43:49;38.20;;;25.00;;
55527;SDS011;52818;43.308;21.916;2022-12-18T03:45:50;38.80;;;25.70;;
55527;SDS011;52818;43.308;21.916;2022-12-18T03:47:50;38.40;;;25.40;;
55527;SDS011;52818;43.308;21.916;2022-12-18T03:49:49;36.70;;;24.10;;
55527;SDS011;52818;43.308;21.916;2022-12-18T03:51:48;35.70;;;23.80;;
55527;SDS011;52818;43.308;21.916;2022-12-18T03:53:49;37.20;;;24.60;;
55527;SDS011;52818;43.308;21.916;2022-12-18T03:55:48;35.90;;;24.30;;
55527;SDS011;52818;43.308;21.916;2022-12-18T03:57:48;36.30;;;24.70;;
55527;SDS011;52818;43.308;21.916;2022-12-18T03:59:49;39.90;;;25.90;;
55527;SDS011;52818;43.308;21.916;2022-12-18T04:01:49;38.90;;;25.30;;
55527;SDS011;52818;43.308;21.916;2022-12-18T04:03:48;38.20;;;25.10;;
55527;SDS011;52818;43.308;21.916;2022-12-18T04:05:49;38.70;;;24.90;;
55527;SDS011;52818;43.308;21.916;2022-12-18T04:07:49;41.80;;;26.00;;
55527;SDS011;52818;43.308;21.916;2022-12-18T04:09:48;36.60;;;24.70;;
55527;SDS011;52818;43.308;21.916;2022-12-18T04:11:49;36.00;;;24.30;;
55527;SDS011;52818;43.308;21.916;2022-12-18T04:13:49;36.70;;;23.80;;
55527;SDS011;52818;43.308;21.916;2022-12-18T04:15:49;38.30;;;24.20;;
55527;SDS011;52818;43.308;21.916;2022-12-18T04:17:49;35.60;;;23.10;;
55527;SDS011;52818;43.308;21.916;2022-12-18T04:19:49;36.20;;;23.20;;
55527;SDS011;52818;43.308;21.916;2022-12-18T04:21:49;38.30;;;24.10;;
55527;SDS011;52818;43.308;21.916;2022-12-18T04:23:49;35.30;;;;;
55527;SDS011;52818;43.308;21.916;2022-12-18T04:25:49;37.80;;;23.30;;
55527;SDS011;52818;43.308;21.916;2022-12-18T04:27:49;36.60;;;23.60;;
55527;SDS011;52818;43.308;21.916;2022-12-18T04:29:49;37.60;;;24.30;;
55527;SDS011;52818;43.308;21.916;2022-12-18T04:31:50;39.00;;;23.70;;
55527;SDS011;52818;43.308;21.916;2022-12-18T04:33:50;38.10;;;23.80;;
55527;SDS011;52818;43.308;21.916;2022-12-18T04:35:50;36.80;;;;;
55527;SDS011;52818;43.308;21.916;2022-12-18T04:37:50;37.10;;;23.70;;
55527;SDS011;52818;43.308;21.916;2022-12-18T04:39:50;38.70;;;24.60;;
55527;SDS011;52818;43.308;21.916;2022-12-18T04:41:50;36.30;;;23.70;;
55527;SDS011;52818;43.308;21.916;2022-12-18T04:43:50;34.90;;;22.70;;
55527;SDS011;52818;43.308;21.916;2022-12-18T04:45:50;38.50;;;23.10;;
55527;SDS011;52818;43.308;21.916;2022-12-18T04:47:50;40.20;;;23.80;;
55527;SDS011;52818;43.308;21.916;2022-12-18T04:49:51;37.20;;;;;
55527;SDS011;52818;43.308;21.916;2022-12-18T04:51:51;39.80;;;24.80;;
55527;SDS011;52818;43.308;21.916;2022-12-18T04:53:51;37.40;;;23.80;;
55527;SDS011;52818;43.308;21.916;2022-12-18T04:55:51;35.40;;;23.30;;
55527;SDS011;52818;43.308;21.916;2022-12-18T04:57:51;37.30;;;23.70;;
55527;SDS011;52818;43.308;21.916;2022-12-18T04:59:51;38.70;;;23.90;;
55527;SDS011;52818;43.308;21.916;2022-12-18T05:01:51;39.00;;;24.70;;
55527;SDS011;52818;43.308;21.916;2022-12-18T05:03:51;38.60;;;;;
55527;SDS011;52818;43.308;21.916;2022-12-18T05:05:51;36.50;;;23.30;;
55527;SDS011;52818;43.308;21.916;2022-12-18T05:07:52;35.10;;;23.00;;
55527;SDS011;52818;43.308;21.916;2022-12-18T05:09:51;38.30;;;23.50;;
55527;SDS011;52818;43.308;21.916;2022-12-18T05:11:52;35.80;;;23.40;;
55527;SDS011;52818;43.308;21.916;2022-12-18T05:13:52;34.70;;;23.00;;
55527;SDS011;52818;43.308;21.916;2022-12-18T05:15:52;38.60;;;;;
55527;SDS011;52818;43.308;21.916;2022-12-18T05:17:52;35.10;;;;;
55527;SDS011;52818;43.308;21.916;2022-12-18T05:19:52;36.60;;;23.60;;
55527;SDS011;52818;43.308;21.916;2022-12-18T05:21:52;38.80;;;24.20;;
55527;SDS011;52818;43.308;21.916;2022-12-18T05:23:52;37.70;;;24.00;;
55527;SDS011;52818;43.308;21.916;2022-12-18T05:25:53;36.70;;;23.40;;
55527;SDS011;52818;43.308;21.916;2022-12-18T05:27:52;35.70;;;23.20;;
55527;SDS011;52818;43.308;21.916;2022-12-18T05:29:52;;;;23.40;;
55527;SDS011;52818;43.308;21.916;2022-12-18T05:31:52;38.10;;;24.60;;
55527;SDS011;52818;43.308;21.916;2022-12-18T05:33:53;36.90;;;23.10;;
55527;SDS011;52818;43.308;21.916;2022-12-18T05:35:53;37.90;;;24.10;;
55527;SDS011;52818;43.308;21.916;2022-12-18T05:37:53;37.60;;;24.20;;
55527;SDS011;52818;43.308;21.916;2022-12-18T05:39:53;37.20;;;24.30;;
55527;SDS011;52818;43.308;21.916;2022-12-18T05:41:53;35.80;;;23.20;;
55527;SDS011;52818;43.308;21.916;2022-12-18T05:43:53;35.00;;;23.30;;
55527;SDS011;52818;43.308;21.916;2022-12-18T05:45:53;36.90;;;23.80;;
55527;SDS011;52818;43.308;21.916;2022-12-18T05:47:53;35.60;;;22.80;;
55527;SDS011;52818;43.308;21.916;2022-12-18T05:49:53;36.80;;;23.80;;
55527;SDS011;52818;43.308;21.916;2022-12-18T05:51:53;37.40;;;23.30;;
55527;SDS011;52818;43.308;21.916;2022-12-18T05:53:54;38.40;;;23.40;;
55527;SDS011;52818;43.308;21.916;2022-12-18T05:55:54;35.90;;;;;
55527;SDS011;52818;43.308;21.916;2022-12-18T05:57:54;37.40;;;22.80;;
55527;SDS011;52818;43.308;21.916;2022-12-18T05:59:54;36.80;;;23.20;;
55527;SDS011;52818;43.308;21.916;2022-12-18T06:01:54;35.20;;;23.30;;
55527;SDS011;52818;43.308;21.916;2022-12-18T06:03:54;36.00;;;23.10;;
55527;SDS011;52818;43.308;21.916;2022-12-18T06:05:54;38.50;;;24.10;;
55527;SDS011;52818;43.308;21.916;2022-12-18T06:07:54;36.60;;;23.50;;
55527;SDS011;52818;43.308;21.916;2022-12-18T06:09:54;35.70;;;23.00;;
55527;SDS011;52818;43.308;21.916;2022-12-18T06:11:54;36.50;;;23.80;;
55527;SDS011;52818;43.308;21.916;2022-12-18T06:13:55;37.20;;;22.50;;
55527;SDS011;52818;43.308;21.916;2022-12-18T06:15:55;38.80;;;23.90;;
55527;SDS011;52818;43.308;21.916;2022-12-18T06:17:55;37.00;;;22.60;;
55527;SDS011;52818;43.308;21.916;2022-12-18T06:19:55;37.20;;;22.80;;
55527;SDS011;52818;43.308;21.916;2022-12-18T06:21:55;35.10;;;23.00;;
55527;SDS011;52818;43.308;21.916;2022-12-18T06:23:55;40.70;;;24.60;;
55527;SDS011;52818;43.308;21.916;2022-12-18T06:25:55;39.80;;;24.50;;
55527;SDS011;52818;43.308;21.916;2022-12-18T06:27:55;40.70;;;25.10;;
55527;SDS011;52818;43.308;21.916;2022-12-18T06:29:55;41.60;;;28.40;;
55527;SDS011;52818;43.308;21.916;2022-12-18T06:31:55;42.60;;;27.10;;
55527;SDS011;52818;43.308;21.916;2022-12-18T06:33:56;37.70;;;25.20;;
55527;SDS011;52818;43.308;21.916;2022-12-18T06:35:59;36.10;;;24.60;;
55527;SDS011;52818;43.308;21.916;2022-12-18T06:37:56;40.00;;;25.60;;
55527;SDS011;52818;43.308;21.916;2022-12-18T06:39:56;45.50;;;27.70;;
55527;SDS011;52818;43.308;21.916;2022-12-18T06:41:56;38.70;;;24.50;;
55527;SDS011;52818;43.308;21.916;2022-12-18T06:43:57;37.10;;;24.30;;
55527;SDS011;52818;43.308;21.916;2022-12-18T06:45:58;36.80;;;23.10;;
55527;SDS011;52818;43.308;21.916;2022-12-18T06:47:56;;;;24.70;;
55527;SDS011;52818;43.308;21.916;2022-12-18T06:49:56;40.80;;;26.70;;
55527;SDS011;52818;43.308;21.916;2022-12-18T06:51:56;43.90;;;27.60;;
55527;SDS011;52818;43.308;21.916;2022-12-18T06:53:56;37.80;;;24.70;;
55527;SDS011;52818;43.308;21.916;2022-12-18T06:55:59;37.30;;;24.30;;
55527;SDS011;52818;43.308;21.916;2022-12-18T06:57:57;35.30;;;23.30;;
55527;SDS011;52818;43.308;21.916;2022-12-18T06:59:57;38.30;;;24.60;;
55527;SDS011;52818;43.308;21.916;2022-12-18T07:01:57;37.30;;;24.30;;
55527;SDS011;52818;43.308;21.916;2022-12-18T07:03:57;34.80;;;23.50;;
55527;SDS011;52818;43.308;21.916;2022-12-18T07:05:57;36.20;;;23.40;;
55527;SDS011;52818;43.308;21.916;2022-12-18T07:07:57;33.60;;;22.80;;
55527;SDS011;52818;43.308;21.916;2022-12-18T07:09:57;35.30;;;23.80;;
55527;SDS011;52818;43.308;21.916;2022-12-18T07:11:57;39.40;;;24.40;;
55527;SDS011;52818;43.308;21.916;2022-12-18T07:13:59;37.90;;;24.10;;
55527;SDS011;52818;43.308;21.916;2022-12-18T07:16:03;35.10;;;22.50;;
55527;SDS011;52818;43.308;21.916;2022-12-18T07:17:57;37.00;;;23.40;;
55527;SDS011;52818;43.308;21.916;2022-12-18T07:19:58;35.60;;;24.20;;
55527;SDS011;52818;43.308;21.916;2022-12-18T07:21:58;40.20;;;24.70;;
55527;SDS011;52818;43.308;21.916;2022-12-18T07:23:58;40.30;;;25.10;;
55527;SDS011;52818;43.308;21.916;2022-12-18T07:26:00;37.10;;;24.90;;
55527;SDS011;52818;43.308;21.916;2022-12-18T07:27:58;36.60;;;24.10;;
55527;SDS011;52818;43.308;21.916;2022-12-18T07:29:58;36.20;;;23.70;;
55527;SDS011;52818;43.308;21.916;2022-12-18T07:31:58;38.40;;;24.50;;
55527;SDS011;52818;43.308;21.916;2022-12-18T07:33:58;36.50;;;24.10;;
55527;SDS011;52818;43.308;21.916;2022-12-18T07:35:59;37.40;;;25.30;;
55527;SDS011;52818;43.308;21.916;2022-12-18T07:37:58;41.50;;;27.20;;
55527;SDS011;52818;43.308;21.916;2022-12-18T07:39:59;46.20;;;29.50;;
55527;SDS011;52818;43.308;21.916;2022-12-18T07:41:59;43.10;;;28.50;;
55527;SDS011;52818;43.308;21.916;2022-12-18T07:43:59;37.80;;;25.20;;
55527;SDS011;52818;43.308;21.916;2022-12-18T07:45:59;41.00;;;26.50;;
55527;SDS011;52818;43.308;21.916;2022-12-18T07:47:59;39.30;;;25.20;;
55527;SDS011;52818;43.308;21.916;2022-12-18T07:49:59;38.40;;;25.10;;
55527;SDS011;52818;43.308;21.916;2022-12-18T07:51:59;39.60;;;26.40;;
55527;SDS011;52818;43.308;21.916;2022-12-18T07:53:59;51.70;;;31.30;;
55527;SDS011;52818;43.308;21.916;2022-12-18T07:56:00;80.10;;;46.90;;
55527;SDS011;52818;43.308;21.916;2022-12-18T07:58:00;179.00;;;79.50;;
55527;SDS011;52818;43.308;21.916;2022-12-18T07:59:59;155.10;;;65.90;;
55527;SDS011;52818;43.308;21.916;2022-12-18T08:02:00;141.20;;;63.10;;
55527;SDS011;52818;43.308;21.916;2022-12-18T08:04:00;337.20;;;227.60;;
55527;SDS011;52818;43.308;21.916;2022-12-18T08:06:00;218.40;;;137.90;;
55527;SDS011;52818;43.308;21.916;2022-12-18T08:08:00;250.10;;;138.30;;
55527;SDS011;52818;43.308;21.916;2022-12-18T08:10:00;244.60;;;153.70;;
55527;SDS011;52818;43.308;21.916;2022-12-18T08:12:00;147.00;;;96.30;;
55527;SDS011;52818;43.308;21.916;2022-12-18T08:14:00;143.50;;;112.20;;
55527;SDS011;52818;43.308;21.916;2022-12-18T08:16:00;95.50;;;64.50;;
55527;SDS011;52818;43.308;21.916;2022-12-18T08:18:00;62.60;;;42.70;;
55527;SDS011;52818;43.308;21.916;2022-12-18T08:20:00;67.50;;;46.00;;
55527;SDS011;52818;43.308;21.916;2022-12-18T08:22:00;71.10;;;50.90;;
55527;SDS011;52818;43.308;21.916;2022-12-18T08:24:01;64.50;;;43.60;;
55527;SDS011;52818;43.308;21.916;2022-12-18T08:26:00;64.90;;;42.40;;
55527;SDS011;52818;43.308;21.916;2022-12-18T08:28:01;108.40;;;71.30;;
55527;SDS011;52818;43.308;21.916;2022-12-18T08:30:01;55.00;;;35.50;;
55527;SDS011;52818;43.308;21.916;2022-12-18T08:32:01;73.20;;;44.10;;
55527;SDS011;52818;43.308;21.916;2022-12-18T08:34:01;62.10;;;37.60;;
55527;SDS011;52818;43.308;21.916;2022-12-18T08:36:01;76.90;;;46.40;;
55527;SDS011;52818;43.308;21.916;2022-12-18T08:38:01;74.00;;;44.20;;
55527;SDS011;52818;43.308;21.916;2022-12-18T08:40:01;96.90;;;52.40;;
55527;SDS011;52818;43.308;21.916;2022-12-18T08:42:01;64.70;;;38.40;;
55527;SDS011;52818;43.308;21.916;2022-12-18T08:44:01;80.80;;;44.80;;
55527;SDS011;52818;43.308;21.916;2022-12-18T08:46:01;60.00;;;36.10;;
55527;SDS011;52818;43.308;21.916;2022-12-18T08:48:01;57.10;;;;;
55527;SDS011;52818;43.308;21.916;2022-12-18T08:50:02;59.10;;;36.70;;
55527;SDS011;52818;43.308;21.916;2022-12-18T08:52:02;54.90;;;38.90;;
55527;SDS011;52818;43.308;21.916;2022-12-18T08:54:02;65.50;;;47.20;;
55527;SDS011;52818;43.308;21.916;2022-12-18T08:56:02;66.70;;;46.80;;
55527;SDS011;52818;43.308;21.916;2022-12-18T08:58:02;59.10;;;36.90;;
55527;SDS011;52818;43.308;21.916;2022-12-18T09:00:02;57.30;;;34.30;;
55527;SDS011;52818;43.308;21.916;2022-12-18T09:02:02;58.40;;;35.70;;
55527;SDS011;52818;43.308;21.916;2022-12-18T09:04:02;61.20;;;37.20;;
55527;SDS011;52818;43.308;21.916;2022-12-18T09:06:03;52.10;;;32.70;;
55527;SDS011;52818;43.308;21.916;2022-12-18T09:08:02;49.70;;;30.60;;
55527;SDS011;52818;43.308;21.916;2022-12-18T09:10:03;51.10;;;30.30;;
55527;SDS011;52818;43.308;21.916;2022-12-18T09:12:02;43.90;;;28.00;;
55527;SDS011;52818;43.308;21.916;2022-12-18T09:14:03;48.80;;;29.10;;
55527;SDS011;52818;43.308;21.916;2022-12-18T09:16:03;47.10;;;30.70;;
55527;SDS011;52818;43.308;21.916;2022-12-18T09:18:33;49.10;;;32.00;;
55527;SDS011;52818;43.308;21.916;2022-12-18T09:20:33;57.60;;;39.10;;
55527;SDS011;52818;43.308;21.916;2022-12-18T09:22:33;48.00;;;32.80;;
55527;SDS011;52818;43.308;21.916;2022-12-18T09:24:33;49.20;;;30.70;;
55527;SDS011;52818;43.308;21.916;2022-12-18T09:26:33;45.70;;;30.60;;
55527;SDS011;52818;43.308;21.916;2022-12-18T09:28:33;48.00;;;32.20;;
55527;SDS011;52818;43.308;21.916;2022-12-18T09:30:33;47.50;;;31.30;;
55527;SDS011;52818;43.308;21.916;2022-12-18T09:32:34;50.90;;;32.80;;
55527;SDS011;52818;43.308;21.916;2022-12-18T09:34:34;54.50;;;34.10;;
55527;SDS011;52818;43.308;21.916;2022-12-18T09:36:34;49.90;;;31.90;;
55527;SDS011;52818;43.308;21.916;2022-12-18T09:38:34;45.50;;;29.70;;
55527;SDS011;52818;43.308;21.916;2022-12-18T09:40:35;55.50;;;34.70;;
55527;SDS011;52818;43.308;21.916;2022-12-18T09:42:34;72.50;;;43.80;;
55527;SDS011;52818;43.308;21.916;2022-12-18T09:44:35;75.50;;;44.30;;
55527;SDS011;52818;43.308;21.916;2022-12-18T09:46:35;84.30;;;49.10;;
55527;SDS011;52818;43.308;21.916;2022-12-18T09:48:35;67.30;;;42.10;;
55527;SDS011;52818;43.308;21.916;2022-12-18T09:50:35;125.60;;;74.90;;
55527;SDS011;52818;43.308;21.916;2022-12-18T09:52:35;59.90;;;37.90;;
55527;SDS011;52818;43.308;21.916;2022-12-18T09:54:36;64.30;;;39.60;;
55527;SDS011;52818;43.308;21.916;2022-12-18T09:56:35;118.40;;;66.60;;
55527;SDS011;52818;43.308;21.916;2022-12-18T09:58:36;207.70;;;120.50;;
55527;SDS011;52818;43.308;21.916;2022-12-18T10:00:35;107.40;;;63.10;;
55527;SDS011;52818;43.308;21.916;2022-12-18T10:02:35;55.40;;;35.00;;
55527;SDS011;52818;43.308;21.916;2022-12-18T10:04:35;69.60;;;44.20;;
55527;SDS011;52818;43.308;21.916;2022-12-18T10:06:37;58.00;;;36.30;;
55527;SDS011;52818;43.308;21.916;2022-12-18T10:08:37;138.40;;;77.10;;
55527;SDS011;52818;43.308;21.916;2022-12-18T10:10:37;100.60;;;59.40;;
55527;SDS011;52818;43.308;21.916;2022-12-18T10:12:37;49.10;;;31.90;;
55527;SDS011;52818;43.308;21.916;2022-12-18T10:14:37;54.40;;;36.40;;
55527;SDS011;52818;43.308;21.916;2022-12-18T10:16:38;67.50;;;44.20;;
55527;SDS011;52818;43.308;21.916;2022-12-18T10:18:39;60.00;;;40.30;;
55527;SDS011;52818;43.308;21.916;2022-12-18T10:20:37;53.50;;;35.10;;
55527;SDS011;52818;43.308;21.916;2022-12-18T10:22:40;52.00;;;34.40;;
55527;SDS011;52818;43.308;21.916;2022-12-18T10:24:38;52.90;;;34.50;;
55527;SDS011;52818;43.308;21.916;2022-12-18T10:26:37;44.70;;;29.50;;
55527;SDS011;52818;43.308;21.916;2022-12-18T10:28:37;42.60;;;27.90;;
55527;SDS011;52818;43.308;21.916;2022-12-18T10:30:37;57.60;;;38.50;;
55527;SDS011;52818;43.308;21.916;2022-12-18T10:32:37;184.10;;;107.60;;
55527;SDS011;52818;43.308;21.916;2022-12-18T10:34:37;56.40;;;35.80;;
55527;SDS011;52818;43.308;21.916;2022-12-18T10:36:37;40.10;;;27.10;;
55527;SDS011;52818;43.308;21.916;2022-12-18T10:38:37;38.30;;;26.30;;
55527;SDS011;52818;43.308;21.916;2022-12-18T10:40:47;43.20;;;26.20;;
55527;SDS011;52818;43.308;21.916;2022-12-18T10:42:38;41.50;;;27.00;;
55527;SDS011;52818;43.308;21.916;2022-12-18T10:44:37;38.60;;;25.60;;
55527;SDS011;52818;43.308;21.916;2022-12-18T10:46:38;47.10;;;30.60;;
55527;SDS011;52818;43.308;21.916;2022-12-18T10:48:39;50.00;;;32.80;;
55527;SDS011;52818;43.308;21.916;2022-12-18T10:50:38;157.40;;;77.80;;
55527;SDS011;52818;43.308;21.916;2022-12-18T10:52:38;92.90;;;52.90;;
55527;SDS011;52818;43.308;21.916;2022-12-18T10:54:38;102.90;;;56.40;;
55527;SDS011;52818;43.308;21.916;2022-12-18T10:56:38;142.90;;;77.50;;
55527;SDS011;52818;43.308;21.916;2022-12-18T10:58:38;355.00;;;196.80;;
55527;SDS011;52818;43.308;21.916;2022-12-18T11:00:38;112.60;;;64.50;;
55527;SDS011;52818;43.308;21.916;2022-12-18T11:02:38;50.40;;;33.20;;
55527;SDS011;52818;43.308;21.916;2022-12-18T11:04:50;67.50;;;44.60;;
55527;SDS011;52818;43.308;21.916;2022-12-18T11:06:51;101.00;;;64.50;;
55527;SDS011;52818;43.308;21.916;2022-12-18T11:08:39;69.70;;;45.50;;
55527;SDS011;52818;43.308;21.916;2022-12-18T11:10:39;53.40;;;34.90;;
55527;SDS011;52818;43.308;21.916;2022-12-18T11:12:39;45.80;;;31.50;;
55527;SDS011;52818;43.308;21.916;2022-12-18T11:14:42;61.50;;;41.00;;
55527;SDS011;52818;43.308;21.916;2022-12-18T11:16:42;61.30;;;40.40;;
55527;SDS011;52818;43.308;21.916;2022-12-18T11:18:39;53.50;;;34.80;;
55527;SDS011;52818;43.308;21.916;2022-12-18T11:20:39;45.80;;;30.40;;
55527;SDS011;52818;43.308;21.916;2022-12-18T11:22:40;52.10;;;31.90;;
55527;SDS011;52818;43.308;21.916;2022-12-18T11:24:40;46.80;;;29.30;;
55527;SDS011;52818;43.308;21.916;2022-12-18T11:26:40;43.60;;;29.50;;
55527;SDS011;52818;43.308;21.916;2022-12-18T11:28:40;46.10;;;29.80;;
55527;SDS011;52818;43.308;21.916;2022-12-18T11:30:40;41.00;;;27.70;;
55527;SDS011;52818;43.308;21.916;2022-12-18T11:32:40;43.40;;;27.30;;
55527;SDS011;52818;43.308;21.916;2022-12-18T11:34:40;310.30;;;149.80;;